createdAt,value
2016-09-12T00:00:14.919Z,99.99
2016-09-12T00:01:14.493Z,99.99
2016-09-12T00:02:14.713Z,99.99
2016-09-12T00:03:15.192Z,99.99
2016-09-12T00:04:14.502Z,99.99
2016-09-12T00:05:14.611Z,99.99
2016-09-12T00:06:14.497Z,99.99
2016-09-12T00:07:14.535Z,99.99
2016-09-12T00:08:15.119Z,99.99
2016-09-12T00:09:15.725Z,99.99
2016-09-12T00:10:14.484Z,99.99
2016-09-12T00:11:14.929Z,99.99
2016-09-12T00:12:14.857Z,99.99
2016-09-12T00:13:14.492Z,99.99
2016-09-12T00:14:14.538Z,99.99
2016-09-12T00:15:14.489Z,99.99
2016-09-12T00:16:14.519Z,99.99
2016-09-12T00:17:15.279Z,99.99
2016-09-12T00:18:14.530Z,99.99
2016-09-12T00:19:14.552Z,99.99
2016-09-12T00:20:14.580Z,99.99
2016-09-12T00:21:15.173Z,99.99
2016-09-12T00:22:15.215Z,99.99
2016-09-12T00:23:14.491Z,99.99
2016-09-12T00:24:14.824Z,99.99
2016-09-12T00:25:14.494Z,99.99
2016-09-12T00:26:14.555Z,99.99
2016-09-12T00:27:14.569Z,99.99
2016-09-12T00:28:14.513Z,99.99
2016-09-12T00:29:14.692Z,99.99
2016-09-12T00:30:14.737Z,99.99
2016-09-12T00:31:14.538Z,99.99
2016-09-12T00:32:14.506Z,99.99
2016-09-12T00:33:14.606Z,99.99
2016-09-12T00:34:14.546Z,99.99
2016-09-12T00:35:14.493Z,99.99
2016-09-12T00:36:15.283Z,99.99
2016-09-12T00:37:14.843Z,99.99
2016-09-12T00:38:14.498Z,99.99
2016-09-12T00:39:14.508Z,99.99
2016-09-12T00:40:14.736Z,99.99
2016-09-12T00:41:14.480Z,99.99
2016-09-12T00:42:14.639Z,99.99
2016-09-12T00:43:14.563Z,99.99
2016-09-12T00:44:14.608Z,99.99
2016-09-12T00:45:15.468Z,99.99
2016-09-12T00:46:14.552Z,99.99
2016-09-12T00:47:14.508Z,99.99
2016-09-12T00:48:14.525Z,99.99
2016-09-12T00:49:14.518Z,99.99
2016-09-12T00:50:14.839Z,99.99
2016-09-12T00:51:14.500Z,99.99
2016-09-12T00:52:14.557Z,99.99
2016-09-12T00:53:14.703Z,99.99
2016-09-12T00:54:14.588Z,99.99
2016-09-12T00:55:14.534Z,99.99
2016-09-12T00:56:15.553Z,99.99
2016-09-12T00:57:14.500Z,99.99
2016-09-12T00:58:14.534Z,99.99
2016-09-12T00:59:14.521Z,99.99
2016-09-12T01:00:14.795Z,99.99
2016-09-12T01:01:14.552Z,99.99
2016-09-12T01:02:14.624Z,99.99
2016-09-12T01:03:14.523Z,99.99
2016-09-12T01:04:14.555Z,99.99
2016-09-12T01:05:14.886Z,99.99
2016-09-12T01:06:14.584Z,99.99
2016-09-12T01:07:14.959Z,99.99
2016-09-12T01:08:14.970Z,99.99
2016-09-12T01:09:14.581Z,99.99
2016-09-12T01:10:14.581Z,99.99
2016-09-12T01:11:14.552Z,99.99
2016-09-12T01:12:14.637Z,99.99
2016-09-12T01:13:14.637Z,99.99
2016-09-12T01:14:14.576Z,99.99
2016-09-12T01:15:14.607Z,99.99
2016-09-12T01:16:14.569Z,99.99
2016-09-12T01:17:14.847Z,99.99
2016-09-12T01:18:15.080Z,99.99
2016-09-12T01:19:14.826Z,99.99
2016-09-12T01:20:14.544Z,99.99
2016-09-12T01:21:14.521Z,99.99
2016-09-12T01:22:14.521Z,99.99
2016-09-12T01:23:14.546Z,99.99
2016-09-12T01:24:14.892Z,99.99
2016-09-12T01:25:14.622Z,99.99
2016-09-12T01:26:14.552Z,99.99
2016-09-12T01:27:14.959Z,99.99
2016-09-12T01:28:15.048Z,99.99
2016-09-12T01:29:14.523Z,99.99
2016-09-12T01:30:15.288Z,99.99
2016-09-12T01:31:14.654Z,99.99
2016-09-12T01:32:14.595Z,99.99
2016-09-12T01:33:14.595Z,99.99
2016-09-12T01:34:14.564Z,99.99
2016-09-12T01:35:14.560Z,99.99
2016-09-12T01:36:14.553Z,99.99
2016-09-12T01:37:14.524Z,99.99
2016-09-12T01:38:14.728Z,99.99
2016-09-12T01:39:14.527Z,99.99
2016-09-12T01:40:14.518Z,99.99
2016-09-12T01:41:14.624Z,99.99
2016-09-12T01:42:14.531Z,99.99
2016-09-12T01:43:14.598Z,99.99
2016-09-12T01:44:14.560Z,99.99
2016-09-12T01:45:14.749Z,99.99
2016-09-12T01:46:15.405Z,99.99
2016-09-12T01:47:15.173Z,99.99
2016-09-12T01:48:14.554Z,99.99
2016-09-12T01:49:15.517Z,99.99
2016-09-12T01:50:15.008Z,99.99
2016-09-12T01:51:14.859Z,99.99
2016-09-12T01:52:14.604Z,99.99
2016-09-12T01:53:15.288Z,99.99
2016-09-12T01:54:14.664Z,99.99
2016-09-12T01:55:14.575Z,99.99
2016-09-12T01:56:14.764Z,99.99
2016-09-12T01:57:14.569Z,99.99
2016-09-12T01:58:15.656Z,99.99
2016-09-12T01:59:14.579Z,99.99
2016-09-12T02:00:14.768Z,99.99
2016-09-12T02:01:14.603Z,99.99
2016-09-12T02:02:14.569Z,99.99
2016-09-12T02:03:14.590Z,99.99
2016-09-12T02:04:15.430Z,99.99
2016-09-12T02:05:14.599Z,99.99
2016-09-12T02:06:14.542Z,99.99
2016-09-12T02:07:14.894Z,99.99
2016-09-12T02:08:14.690Z,99.99
2016-09-12T02:09:14.597Z,99.99
2016-09-12T02:10:15.519Z,99.99
2016-09-12T02:11:14.563Z,99.99
2016-09-12T02:12:15.032Z,99.99
2016-09-12T02:13:14.582Z,99.99
2016-09-12T02:14:14.575Z,99.99
2016-09-12T02:15:14.996Z,99.99
2016-09-12T02:16:15.283Z,99.99
2016-09-12T02:17:14.584Z,99.99
2016-09-12T02:18:15.244Z,99.99
2016-09-12T02:19:15.597Z,99.99
2016-09-12T02:20:14.586Z,99.99
2016-09-12T02:21:14.674Z,99.99
2016-09-12T02:22:14.619Z,99.99
2016-09-12T02:23:14.566Z,99.99
2016-09-12T02:24:14.677Z,99.99
2016-09-12T02:25:14.581Z,99.99
2016-09-12T02:26:14.588Z,99.99
2016-09-12T02:27:14.666Z,99.99
2016-09-12T02:28:14.943Z,99.99
2016-09-12T02:29:14.598Z,99.99
2016-09-12T02:30:14.664Z,99.99
2016-09-12T02:31:14.606Z,99.99
2016-09-12T02:32:14.598Z,99.99
2016-09-12T02:33:14.721Z,99.99
2016-09-12T02:34:14.591Z,99.99
2016-09-12T02:35:14.589Z,99.99
2016-09-12T02:36:14.616Z,99.99
2016-09-12T02:37:14.735Z,99.99
2016-09-12T02:38:14.618Z,99.99
2016-09-12T02:39:14.586Z,99.99
2016-09-12T02:40:14.663Z,99.99
2016-09-12T02:41:14.647Z,99.99
2016-09-12T02:42:15.025Z,99.99
2016-09-12T02:43:14.654Z,99.99
2016-09-12T02:44:15.232Z,99.99
2016-09-12T02:45:14.669Z,99.99
2016-09-12T02:46:14.623Z,99.99
2016-09-12T02:47:14.617Z,99.99
2016-09-12T02:48:14.672Z,99.99
2016-09-12T02:49:14.707Z,99.99
2016-09-12T02:50:14.722Z,99.99
2016-09-12T02:51:14.662Z,99.99
2016-09-12T02:52:14.702Z,99.99
2016-09-12T02:53:14.659Z,99.99
2016-09-12T02:54:14.644Z,99.99
2016-09-12T02:55:14.683Z,99.99
2016-09-12T02:56:14.749Z,99.99
2016-09-12T02:57:14.634Z,99.99
2016-09-12T02:58:14.789Z,99.99
2016-09-12T02:59:14.602Z,99.99
2016-09-12T03:00:14.937Z,99.99
2016-09-12T03:01:14.915Z,99.99
2016-09-12T03:02:14.628Z,99.99
2016-09-12T03:03:14.637Z,99.99
2016-09-12T03:04:14.752Z,99.99
2016-09-12T03:05:14.633Z,99.99
2016-09-12T03:06:14.993Z,99.99
2016-09-12T03:07:14.785Z,99.99
2016-09-12T03:08:14.632Z,99.99
2016-09-12T03:09:14.632Z,99.99
2016-09-12T03:10:14.604Z,99.99
2016-09-12T03:11:14.709Z,99.99
2016-09-12T03:12:14.660Z,99.99
2016-09-12T03:13:14.607Z,99.99
2016-09-12T03:14:14.826Z,99.99
2016-09-12T03:15:14.618Z,99.99
2016-09-12T03:16:14.689Z,99.99
2016-09-12T03:17:14.670Z,99.99
2016-09-12T03:18:14.936Z,99.99
2016-09-12T03:19:14.702Z,99.99
2016-09-12T03:20:14.643Z,99.99
2016-09-12T03:21:14.649Z,99.99
2016-09-12T03:22:14.842Z,99.99
2016-09-12T03:23:14.661Z,99.99
2016-09-12T03:24:14.842Z,99.99
2016-09-12T03:25:14.710Z,99.99
2016-09-12T03:26:15.137Z,99.99
2016-09-12T03:27:14.646Z,99.99
2016-09-12T03:28:14.754Z,99.99
2016-09-12T03:29:14.628Z,99.99
2016-09-12T03:30:14.708Z,99.99
2016-09-12T03:31:14.659Z,99.99
2016-09-12T03:32:14.647Z,99.99
2016-09-12T03:33:14.793Z,99.99
2016-09-12T03:34:15.087Z,99.99
2016-09-12T03:35:14.648Z,99.99
2016-09-12T03:36:14.652Z,99.99
2016-09-12T03:37:14.756Z,99.99
2016-09-12T03:38:14.638Z,99.99
2016-09-12T03:39:14.723Z,99.99
2016-09-12T03:40:14.657Z,99.99
2016-09-12T03:41:14.631Z,99.99
2016-09-12T03:42:15.318Z,99.99
2016-09-12T03:43:14.767Z,99.99
2016-09-12T03:44:14.707Z,99.99
2016-09-12T03:45:14.700Z,99.99
2016-09-12T03:46:14.665Z,99.99
2016-09-12T03:47:14.780Z,99.99
2016-09-12T03:48:14.717Z,99.99
2016-09-12T03:49:15.160Z,99.99
2016-09-12T03:50:15.094Z,99.99
2016-09-12T03:51:14.668Z,99.99
2016-09-12T03:52:14.745Z,99.99
2016-09-12T03:53:14.636Z,99.99
2016-09-12T03:54:14.967Z,99.99
2016-09-12T03:55:14.956Z,99.99
2016-09-12T03:56:14.684Z,99.99
2016-09-12T03:57:14.667Z,99.99
2016-09-12T03:58:14.761Z,99.99
2016-09-12T03:59:14.840Z,99.99
2016-09-12T04:00:14.775Z,99.99
2016-09-12T04:01:14.687Z,99.99
2016-09-12T04:02:15.471Z,99.99
2016-09-12T04:03:14.743Z,99.99
2016-09-12T04:04:14.690Z,99.99
2016-09-12T04:05:14.684Z,99.99
2016-09-12T04:06:14.700Z,99.99
2016-09-12T04:07:14.690Z,99.99
2016-09-12T04:08:14.698Z,99.99
2016-09-12T04:09:14.703Z,99.99
2016-09-12T04:10:14.734Z,99.99
2016-09-12T04:11:14.713Z,99.99
2016-09-12T04:12:14.713Z,99.99
2016-09-12T04:13:14.900Z,99.99
2016-09-12T04:14:14.719Z,99.99
2016-09-12T04:15:14.784Z,99.99
2016-09-12T04:16:15.402Z,99.99
2016-09-12T04:17:15.345Z,99.99
2016-09-12T04:18:16.689Z,99.99
2016-09-12T04:19:14.775Z,99.99
2016-09-12T04:20:14.675Z,99.99
2016-09-12T04:21:14.776Z,99.99
2016-09-12T04:22:14.747Z,99.99
2016-09-12T04:23:14.798Z,99.99
2016-09-12T04:24:14.733Z,99.99
2016-09-12T04:25:14.720Z,99.99
2016-09-12T04:26:14.730Z,99.99
2016-09-12T04:27:14.724Z,99.99
2016-09-12T04:28:14.703Z,99.99
2016-09-12T04:29:14.804Z,99.99
2016-09-12T04:30:14.764Z,99.99
2016-09-12T04:31:14.701Z,99.99
2016-09-12T04:32:14.733Z,99.99
2016-09-12T04:33:15.018Z,99.99
2016-09-12T04:34:15.070Z,99.99
2016-09-12T04:35:14.910Z,99.99
2016-09-12T04:36:14.680Z,99.99
2016-09-12T04:37:14.779Z,99.99
2016-09-12T04:38:14.748Z,99.99
2016-09-12T04:39:14.716Z,99.99
2016-09-12T04:40:14.711Z,99.99
2016-09-12T04:41:14.726Z,99.99
2016-09-12T04:42:14.689Z,99.99
2016-09-12T04:43:14.779Z,99.99
2016-09-12T04:44:14.865Z,99.99
2016-09-12T04:45:14.750Z,99.99
2016-09-12T04:46:14.752Z,99.99
2016-09-12T04:47:14.780Z,99.99
2016-09-12T04:48:14.754Z,99.99
2016-09-12T04:49:14.837Z,99.99
2016-09-12T04:50:15.140Z,99.99
2016-09-12T04:51:15.176Z,99.99
2016-09-12T04:52:14.716Z,99.99
2016-09-12T04:53:14.893Z,99.99
2016-09-12T04:54:14.793Z,99.99
2016-09-12T04:55:14.731Z,99.99
2016-09-12T04:56:14.755Z,99.99
2016-09-12T04:57:14.788Z,99.99
2016-09-12T04:58:14.778Z,99.99
2016-09-12T04:59:14.805Z,99.99
2016-09-12T05:00:14.736Z,99.99
2016-09-12T05:01:15.071Z,99.99
2016-09-12T05:02:14.754Z,99.99
2016-09-12T05:03:14.726Z,99.99
2016-09-12T05:04:41.401Z,99.99
2016-09-12T05:06:29.424Z,99.99
2016-09-12T05:07:38.825Z,99.99
2016-09-12T05:09:00.503Z,99.99
2016-09-12T05:10:30.298Z,99.99
2016-09-12T05:11:56.410Z,99.99
2016-09-12T05:12:41.400Z,99.99
2016-09-12T05:13:58.116Z,99.99
2016-09-12T05:15:45.180Z,99.99
2016-09-12T05:16:48.403Z,99.99
2016-09-12T05:17:34.562Z,99.99
2016-09-12T05:18:34.769Z,99.99
2016-09-12T05:19:33.357Z,99.99
2016-09-12T05:20:34.212Z,99.99
2016-09-12T05:21:33.271Z,99.99
2016-09-12T05:22:33.287Z,99.99
2016-09-12T05:23:33.334Z,99.99
2016-09-12T05:24:33.378Z,99.99
2016-09-12T05:25:33.544Z,99.99
2016-09-12T05:26:33.584Z,99.99
2016-09-12T05:27:33.300Z,99.99
2016-09-12T05:28:33.335Z,99.99
2016-09-12T05:29:33.312Z,99.99
2016-09-12T05:30:33.333Z,99.99
2016-09-12T05:31:34.129Z,99.99
2016-09-12T05:32:33.426Z,99.99
2016-09-12T05:33:33.337Z,99.99
2016-09-12T05:34:33.361Z,99.99
2016-09-12T05:35:36.068Z,99.99
2016-09-12T05:36:33.423Z,99.99
2016-09-12T05:37:34.433Z,99.99
2016-09-12T05:38:33.387Z,99.99
2016-09-12T05:39:33.304Z,99.99
2016-09-12T05:40:33.302Z,99.99
2016-09-12T05:41:33.425Z,99.99
2016-09-12T05:42:33.378Z,99.99
2016-09-12T05:43:33.543Z,99.99
2016-09-12T05:44:33.715Z,99.99
2016-09-12T05:45:34.085Z,99.99
2016-09-12T05:46:33.372Z,99.99
2016-09-12T05:47:33.632Z,99.99
2016-09-12T05:48:34.324Z,99.99
2016-09-12T05:49:33.316Z,99.99
2016-09-12T05:50:33.369Z,99.99
2016-09-12T05:51:33.340Z,99.99
2016-09-12T05:52:33.308Z,99.99
2016-09-12T05:53:33.372Z,99.99
2016-09-12T05:54:35.372Z,99.99
2016-09-12T05:55:33.534Z,99.99
2016-09-12T05:56:33.753Z,99.99
2016-09-12T05:57:33.469Z,99.99
2016-09-12T05:58:33.493Z,99.99
2016-09-12T05:59:33.382Z,99.99
2016-09-12T06:00:33.302Z,99.99
2016-09-12T06:01:34.373Z,99.99
2016-09-12T06:02:33.662Z,99.99
2016-09-12T06:03:33.348Z,99.99
2016-09-12T06:04:33.817Z,99.99
2016-09-12T06:05:33.431Z,99.99
2016-09-12T06:06:33.465Z,99.99
2016-09-12T06:07:33.969Z,99.99
2016-09-12T06:08:33.375Z,99.99
2016-09-12T06:09:54.067Z,99.99
2016-09-12T06:10:33.497Z,99.99
2016-09-12T06:11:35.912Z,99.99
2016-09-12T06:12:33.537Z,99.99
2016-09-12T06:13:36.720Z,99.99
2016-09-12T06:14:33.893Z,99.99
2016-09-12T06:15:34.979Z,99.99
2016-09-12T06:16:33.738Z,99.99
2016-09-12T06:17:33.560Z,99.99
2016-09-12T06:18:34.672Z,99.99
2016-09-12T06:19:34.755Z,99.99
2016-09-12T06:20:48.091Z,99.99
2016-09-12T06:21:35.339Z,99.99
2016-09-12T06:24:35.686Z,99.99
2016-09-12T06:25:35.692Z,99.99
2016-09-12T06:26:35.685Z,99.99
2016-09-12T06:27:35.794Z,99.99
2016-09-12T06:28:36.311Z,99.99
2016-09-12T06:29:35.751Z,99.99
2016-09-12T06:30:35.689Z,99.99
2016-09-12T06:31:35.729Z,99.99
2016-09-12T06:32:35.700Z,99.99
2016-09-12T06:33:35.693Z,99.99
2016-09-12T06:34:35.712Z,99.99
2016-09-12T06:35:35.762Z,99.99
2016-09-12T06:36:35.729Z,99.99
2016-09-12T06:37:35.697Z,99.99
2016-09-12T06:38:35.717Z,99.99
2016-09-12T06:39:35.700Z,99.99
2016-09-12T06:40:36.323Z,99.99
2016-09-12T06:42:11.147Z,99.99
2016-09-12T12:52:28.017Z,52.85
2016-09-12T12:53:28.014Z,51.39
2016-09-12T12:54:28.002Z,52.36
2016-09-12T12:55:28.202Z,51.39
2016-09-12T12:56:27.976Z,52.17
2016-09-12T12:57:27.995Z,51.48
2016-09-12T12:58:28.023Z,51.29
2016-09-12T12:59:27.999Z,50.51
2016-09-12T13:00:28.018Z,50.51
2016-09-12T13:01:28.037Z,50.51
2016-09-12T13:02:27.998Z,50.51
2016-09-12T13:03:27.998Z,49.83
2016-09-12T13:04:28.028Z,49.73
2016-09-12T13:05:28.027Z,49.93
2016-09-12T13:06:28.070Z,50.7
2016-09-12T13:07:28.008Z,50.73
2016-09-12T13:08:28.048Z,50.99
2016-09-12T13:09:28.031Z,50.92
2016-09-12T13:10:28.008Z,52.09
2016-09-12T13:11:28.006Z,51.9
2016-09-12T13:12:28.013Z,51.02
2016-09-12T13:13:28.033Z,50.8
2016-09-12T13:14:28.033Z,50.92
2016-09-12T13:15:28.043Z,52.78
2016-09-12T13:16:28.030Z,52.87
2016-09-12T13:17:28.098Z,51.7
2016-09-12T13:18:28.018Z,50.82
2016-09-12T13:19:28.032Z,51.21
2016-09-12T13:20:28.036Z,50.82
2016-09-12T13:21:28.063Z,50.63
2016-09-12T13:22:28.225Z,50.63
2016-09-12T13:23:28.025Z,50.53
2016-09-12T13:24:28.037Z,50.73
2016-09-12T13:25:28.031Z,50.82
2016-09-12T13:26:28.003Z,51.21
2016-09-12T13:27:28.083Z,51.21
2016-09-12T13:28:28.046Z,49.56
2016-09-12T13:29:28.053Z,49.37
2016-09-12T13:30:28.047Z,49.56
2016-09-12T13:31:28.078Z,49.76
2016-09-12T13:32:28.050Z,49.46
2016-09-12T13:33:28.080Z,50.82
2016-09-12T13:34:28.043Z,50.92
2016-09-12T13:35:28.643Z,51.12
2016-09-12T13:36:28.105Z,49.85
2016-09-12T13:37:28.037Z,50.73
2016-09-12T13:38:28.052Z,50.73
2016-09-12T13:39:28.035Z,49.66
2016-09-12T13:40:28.049Z,50.14
2016-09-12T13:41:28.068Z,50.43
2016-09-12T13:42:28.043Z,50.24
2016-09-12T13:43:28.046Z,49.56
2016-09-12T13:44:28.037Z,50.53
2016-09-12T13:45:28.134Z,51.04
2016-09-12T13:46:28.039Z,50.75
2016-09-12T13:47:28.062Z,50.65
2016-09-12T13:48:28.109Z,49.78
2016-09-12T13:49:28.101Z,50.07
2016-09-12T13:50:28.060Z,50.24
2016-09-12T13:51:28.059Z,50.07
2016-09-12T13:52:28.119Z,49.37
2016-09-12T13:53:28.080Z,50.07
2016-09-12T13:54:28.075Z,49.27
2016-09-12T13:55:28.081Z,49.68
2016-09-12T13:56:28.076Z,50.16
2016-09-12T13:57:28.067Z,49.95
2016-09-12T13:58:28.065Z,50.56
2016-09-12T13:59:28.113Z,50.53
2016-09-12T14:00:28.060Z,50.85
2016-09-12T14:01:28.087Z,50.63
2016-09-12T14:02:28.079Z,50.63
2016-09-12T14:03:28.078Z,51.24
2016-09-12T14:04:28.089Z,50.65
2016-09-12T14:05:28.089Z,50.24
2016-09-12T14:06:28.085Z,49.58
2016-09-12T14:07:28.075Z,49.49
2016-09-12T14:08:28.073Z,49.49
2016-09-12T14:09:28.097Z,49.88
2016-09-12T14:10:28.105Z,50.75
2016-09-12T14:11:28.076Z,51.04
2016-09-12T14:12:28.072Z,50.85
2016-09-12T14:13:28.083Z,51.24
2016-09-12T14:14:28.089Z,50.65
2016-09-12T14:15:28.087Z,50.85
2016-09-12T14:16:28.091Z,50.56
2016-09-12T14:17:28.091Z,51.04
2016-09-12T14:18:28.096Z,51.14
2016-09-12T14:19:28.082Z,50.75
2016-09-12T14:20:29.081Z,50.65
2016-09-12T14:21:28.073Z,50.46
2016-09-12T14:22:28.078Z,50.43
2016-09-12T14:23:28.076Z,51.04
2016-09-12T14:24:28.107Z,50.65
2016-09-12T14:25:28.105Z,50.75
2016-09-12T14:26:28.092Z,49.68
2016-09-12T14:27:28.130Z,49.78
2016-09-12T14:28:28.105Z,50.14
2016-09-12T14:29:28.092Z,49.46
2016-09-12T14:30:28.163Z,50.34
2016-09-12T14:31:28.096Z,50.63
2016-09-12T14:32:28.109Z,50.16
2016-09-12T14:33:28.142Z,51.14
2016-09-12T14:34:28.107Z,51.04
2016-09-12T14:35:28.128Z,50.95
2016-09-12T14:36:28.098Z,50.56
2016-09-12T14:37:28.111Z,51.7
2016-09-12T14:38:28.149Z,51.02
2016-09-12T14:39:28.137Z,51.04
2016-09-12T14:40:28.132Z,49.78
2016-09-12T14:41:28.136Z,50.34
2016-09-12T14:42:28.123Z,49.98
2016-09-12T14:43:28.148Z,49.98
2016-09-12T14:44:28.130Z,50.26
2016-09-12T14:45:28.114Z,50.16
2016-09-12T14:46:28.195Z,49.68
2016-09-12T14:47:28.104Z,49.98
2016-09-12T14:48:28.117Z,50.85
2016-09-12T14:49:28.143Z,51.04
2016-09-12T14:50:28.106Z,52.02
2016-09-12T14:51:28.111Z,51.92
2016-09-12T14:52:28.191Z,52.02
2016-09-12T14:53:28.120Z,51.43
2016-09-12T14:54:28.119Z,52.12
2016-09-12T14:55:28.127Z,51.92
2016-09-12T14:56:28.175Z,51.34
2016-09-12T14:57:28.132Z,51.53
2016-09-12T14:58:28.119Z,50.85
2016-09-12T14:59:28.196Z,50.75
2016-09-12T15:00:28.140Z,50.46
2016-09-12T15:01:28.149Z,50.85
2016-09-12T15:02:28.167Z,52.31
2016-09-12T15:03:28.134Z,51.82
2016-09-12T15:04:28.185Z,51.82
2016-09-12T15:05:28.156Z,51.92
2016-09-12T15:06:28.182Z,50.82
2016-09-12T15:07:28.150Z,50.75
2016-09-12T15:08:28.197Z,51.04
2016-09-12T15:09:28.190Z,51.34
2016-09-12T15:10:28.160Z,51.8
2016-09-12T15:11:28.223Z,53.39
2016-09-12T15:12:28.159Z,54.34
2016-09-12T15:13:28.150Z,51.8
2016-09-12T15:14:28.185Z,50.73
2016-09-12T15:15:28.173Z,51.14
2016-09-12T15:16:28.180Z,51.21
2016-09-12T15:17:28.223Z,51.12
2016-09-12T15:18:28.202Z,51.21
2016-09-12T15:19:28.163Z,52.19
2016-09-12T15:20:28.173Z,52.87
2016-09-12T15:21:28.230Z,53.46
2016-09-12T15:22:28.172Z,54.53
2016-09-12T15:23:28.188Z,54.93
2016-09-12T15:24:28.170Z,54.24
2016-09-12T15:25:28.188Z,52
2016-09-12T15:26:28.223Z,52.78
2016-09-12T15:27:28.167Z,51.8
2016-09-12T15:28:28.848Z,51.21
2016-09-12T15:29:28.196Z,52.19
2016-09-12T15:30:28.188Z,52.48
2016-09-12T15:31:28.175Z,51.61
2016-09-12T15:32:28.251Z,51.12
2016-09-12T15:33:28.196Z,51.12
2016-09-12T15:34:28.199Z,51.61
2016-09-12T15:35:31.446Z,51.41
2016-09-12T15:36:28.170Z,51.9
2016-09-12T15:37:28.213Z,53.36
2016-09-12T15:38:28.196Z,53.17
2016-09-12T15:39:28.204Z,54.14
2016-09-12T15:40:28.167Z,53.75
2016-09-12T15:41:28.191Z,54.63
2016-09-12T15:42:28.184Z,54.53
2016-09-12T15:43:31.293Z,54.31
2016-09-12T15:44:31.279Z,54.99
2016-09-12T15:45:29.689Z,55.48
2016-09-12T15:46:29.822Z,53.46
2016-09-12T15:47:29.772Z,54.21
2016-09-12T15:48:29.940Z,53.44
2016-09-12T15:49:29.908Z,54.02
2016-09-12T15:50:31.018Z,54.6
2016-09-12T15:51:29.712Z,55.29
2016-09-12T15:52:31.042Z,55.87
2016-09-12T15:53:30.547Z,56.36
2016-09-12T15:54:31.180Z,56.85
2016-09-12T15:55:29.898Z,56.82
2016-09-12T15:56:30.201Z,56.82
2016-09-12T15:57:30.632Z,55.65
2016-09-12T15:58:30.103Z,55.75
2016-09-12T15:59:29.896Z,56.43
2016-09-12T16:00:30.092Z,55.94
2016-09-12T16:01:30.073Z,55.65
2016-09-12T16:02:30.260Z,54.87
2016-09-12T16:03:29.788Z,54.28
2016-09-12T16:04:30.885Z,54.48
2016-09-12T16:05:29.909Z,55.16
2016-09-12T16:06:29.849Z,56.14
2016-09-12T16:07:31.432Z,56.04
2016-09-12T16:08:29.993Z,55.75
2016-09-12T16:09:31.123Z,55.16
2016-09-12T16:10:30.375Z,56.14
2016-09-12T16:14:14.958Z,55.75
2016-09-12T16:14:24.952Z,55.94
2016-09-12T16:15:25.096Z,56.14
2016-09-12T16:16:24.959Z,55.85
2016-09-12T16:17:24.958Z,56.04
2016-09-12T16:18:25.726Z,55.75
2016-09-12T16:19:24.924Z,56.04
2016-09-12T16:20:24.919Z,56.3
2016-09-12T16:21:24.952Z,56.62
2016-09-12T16:22:24.930Z,56.6
2016-09-12T16:23:24.946Z,57.57
2016-09-12T16:24:24.961Z,57.57
2016-09-12T16:25:24.952Z,57.96
2016-09-12T16:26:24.955Z,57.28
2016-09-12T16:27:24.967Z,57.57
2016-09-12T16:28:24.942Z,57.37
2016-09-12T16:29:24.979Z,57.93
2016-09-12T16:30:24.991Z,57.67
2016-09-12T16:31:24.983Z,58.42
2016-09-12T16:32:25.009Z,58.22
2016-09-12T16:33:24.959Z,57.93
2016-09-12T16:34:24.961Z,58.42
2016-09-12T16:35:24.960Z,58.71
2016-09-12T16:36:24.935Z,58.61
2016-09-12T16:37:24.984Z,58.51
2016-09-12T16:38:24.994Z,58.61
2016-09-12T16:39:24.989Z,59.3
2016-09-12T16:40:24.980Z,59.1
2016-09-12T16:41:24.959Z,59.36
2016-09-12T16:42:24.979Z,59.49
2016-09-12T16:43:24.970Z,59.69
2016-09-12T16:44:25.509Z,59.17
2016-09-12T16:45:24.957Z,59.75
2016-09-12T16:46:24.967Z,60.24
2016-09-12T16:47:25.015Z,59.95
2016-09-12T16:48:24.968Z,60.63
2016-09-12T16:49:24.965Z,60.63
2016-09-12T16:50:24.980Z,60.82
2016-09-12T16:51:24.978Z,60.82
2016-09-12T16:52:24.982Z,60.89
2016-09-12T16:53:24.964Z,61.28
2016-09-12T16:54:25.433Z,61.18
2016-09-12T16:55:25.027Z,61.08
2016-09-12T16:56:24.990Z,61.77
2016-09-12T16:57:25.552Z,61.67
2016-09-12T16:58:24.990Z,61.18
2016-09-12T16:59:25.727Z,61.38
2016-09-12T17:00:25.146Z,61.74
2016-09-12T17:01:24.994Z,61.83
2016-09-12T17:02:25.616Z,62.13
2016-09-12T17:03:25.015Z,62.23
2016-09-12T17:04:25.129Z,62.71
2016-09-12T17:05:25.002Z,63
2016-09-12T17:06:24.992Z,63.49
2016-09-12T17:07:25.635Z,63.1
2016-09-12T17:08:25.082Z,63.36
2016-09-12T17:09:25.005Z,63.78
2016-09-12T17:10:24.992Z,63.36
2016-09-12T17:11:26.022Z,63.94
2016-09-12T17:12:24.991Z,65.11
2016-09-12T17:13:25.046Z,65.75
2016-09-12T17:14:24.984Z,66.24
2016-09-12T17:15:25.056Z,67.41
2016-09-12T17:16:25.005Z,66.72
2016-09-12T17:17:25.012Z,67.5
2016-09-12T17:18:25.011Z,67.6
2016-09-12T17:19:25.008Z,67.57
2016-09-12T17:20:24.994Z,68.15
2016-09-12T17:21:25.226Z,68.25
2016-09-12T17:22:24.995Z,68.83
2016-09-12T17:23:26.905Z,69.02
2016-09-12T17:24:25.412Z,69.57
2016-09-12T17:25:25.098Z,69.28
2016-09-12T17:26:25.070Z,69.76
2016-09-12T17:27:25.033Z,69.48
2016-09-12T17:28:25.964Z,69.44
2016-09-12T17:29:25.015Z,69.34
2016-09-12T17:30:25.394Z,70.41
2016-09-12T17:31:25.894Z,70.61
2016-09-12T17:32:25.011Z,71.06
2016-09-12T17:33:25.043Z,71.34
2016-09-12T17:34:26.244Z,71.93
2016-09-12T17:35:25.117Z,72.12
2016-09-12T17:36:25.024Z,72.51
2016-09-12T17:37:26.285Z,72.38
2016-09-12T17:38:25.128Z,72.61
2016-09-12T17:39:25.307Z,72.18
2016-09-12T17:40:25.040Z,72.67
2016-09-12T17:41:25.686Z,72.57
2016-09-12T17:42:25.168Z,73.15
2016-09-12T17:43:25.740Z,73.25
2016-09-12T17:44:25.101Z,73.6
2016-09-12T17:45:25.241Z,74.28
2016-09-12T17:46:25.476Z,74.76
2016-09-12T17:47:25.267Z,74.76
2016-09-12T17:48:25.084Z,75.15
2016-09-12T17:49:26.162Z,75.83
2016-09-12T17:50:25.083Z,76.6
2016-09-12T17:51:25.133Z,76.37
2016-09-12T17:52:25.327Z,76.31
2016-09-12T17:53:25.127Z,76.46
2016-09-12T17:54:25.059Z,76.86
2016-09-12T17:55:25.131Z,77.53
2016-09-12T17:56:25.044Z,77.34
2016-09-12T17:57:25.037Z,77.92
2016-09-12T17:58:25.455Z,78.31
2016-09-12T17:59:25.056Z,77.88
2016-09-12T18:00:25.028Z,78.94
2016-09-12T18:01:25.178Z,79.04
2016-09-12T18:02:25.059Z,78.94
2016-09-12T18:03:25.078Z,78.94
2016-09-12T18:04:25.056Z,79.14
2016-09-12T18:05:25.081Z,79.62
2016-09-12T18:06:25.262Z,79.2
2016-09-12T18:07:25.296Z,79.29
2016-09-12T18:08:25.066Z,80.07
2016-09-12T18:09:25.065Z,79.97
2016-09-12T18:10:25.129Z,80.07
2016-09-12T18:11:25.075Z,80.51
2016-09-12T18:12:25.230Z,80.71
2016-09-12T18:13:25.087Z,80.84
2016-09-12T18:14:25.068Z,81.48
2016-09-12T18:15:26.023Z,82.73
2016-09-12T18:16:25.088Z,83.31
2016-09-12T18:17:25.116Z,83.61
2016-09-12T18:18:25.076Z,83.08
2016-09-12T18:19:25.097Z,83.89
2016-09-12T18:20:25.095Z,84.57
2016-09-12T18:21:25.182Z,84.43
2016-09-12T18:22:25.096Z,84.77
2016-09-12T18:23:25.167Z,85.88
2016-09-12T18:24:25.105Z,86.11
2016-09-12T18:25:25.167Z,86.6
2016-09-12T18:26:25.142Z,86.85
2016-09-12T18:27:25.803Z,87.23
2016-09-12T18:28:25.161Z,87.62
2016-09-12T18:29:25.136Z,87.43
2016-09-12T18:30:25.419Z,87.71
2016-09-12T18:31:25.156Z,88.01
2016-09-12T18:32:25.155Z,88.01
2016-09-12T18:33:25.134Z,88.68
2016-09-12T18:34:25.215Z,88.59
2016-09-12T18:35:25.223Z,88.73
2016-09-12T18:36:25.127Z,89.51
2016-09-12T18:37:25.091Z,89.22
2016-09-12T18:38:25.120Z,89.7
2016-09-12T18:39:25.107Z,90.09
2016-09-12T18:40:25.161Z,90.28
2016-09-12T18:41:25.815Z,90.95
2016-09-12T18:42:25.162Z,91.49
2016-09-12T18:43:25.139Z,91.39
2016-09-12T18:44:25.097Z,91.49
2016-09-12T18:45:25.166Z,91.88
2016-09-12T18:46:25.230Z,92.94
2016-09-12T18:47:25.165Z,92.65
2016-09-12T18:48:25.115Z,92.84
2016-09-12T18:49:25.165Z,93.04
2016-09-12T18:50:25.104Z,93.13
2016-09-12T18:51:25.231Z,93.8
2016-09-12T18:52:25.271Z,93.71
2016-09-12T18:53:25.283Z,94
2016-09-12T18:54:25.326Z,94.48
2016-09-12T18:55:25.215Z,94.87
2016-09-12T18:56:25.205Z,95.54
2016-09-12T18:57:25.203Z,95.4
2016-09-12T18:58:25.143Z,96.12
2016-09-12T18:59:25.213Z,95.83
2016-09-12T19:00:25.437Z,95.69
2016-09-12T19:01:25.176Z,95.88
2016-09-12T19:02:25.189Z,96.17
2016-09-12T19:03:25.122Z,96.27
2016-09-12T19:04:25.175Z,96.46
2016-09-12T19:05:25.100Z,96.56
2016-09-12T19:06:25.137Z,97.42
2016-09-12T19:07:25.176Z,97.04
2016-09-12T19:08:25.166Z,97.62
2016-09-12T19:09:25.130Z,97.81
2016-09-12T19:10:25.144Z,97.91